• Join FlightAware (Why Join?)
  • Login
  • US Flag 
07:01PM EDT


 

Airport Tracker/Info


-or-


 

Live Flight TrackerFlight Track Log ✈ N762NC ✈ 20-Aug-2013 ✈ KLIT - KATL

Flight Track Log - Related Links

Times and Time Zones

All times are in EDT time to prevent confusion due to time zone crossing. See the N762NC flight status page for this flight to view local times or setup timezone preferences in your user account.

Time Position Orientation Groundspeed Altitude Reporting Facility
EDT Latitude Longitude Course Direction KTS MPH feet Rate Location/Type
08:40AM 34.7350 -92.1994 79° East 168 193 800  Level Memphis Center
08:40AM 34.7483 -92.1592 68° East 204 235 1,700 1,620 Climbing Memphis Center
08:41AM 34.7450 -92.0833 93° East 242 278 3,600 1,620 Climbing Memphis Center
08:42AM 34.7400 -92.0050 94° East 250 288 4,900 1,620 Climbing Memphis Center
08:43AM 34.7384 -91.7362 78° East  Level FlightAware Approximate
08:43AM 34.7428 -91.9469 87° East 273 314 6,000  Level Memphis Center
08:44AM 34.7599 -91.6073 78° East  Level FlightAware Approximate
08:44AM 34.7397 -91.8608 92° East 280 322 8,000  Level Memphis Center
08:45AM 34.7814 -91.4783 79° East  Level FlightAware Approximate
08:45AM 34.7450 -91.7650 86° East 280 322 9,900  Level Memphis Center
08:46AM 34.7544 -91.6589 84° East 297 342 10,700 900 Climbing Memphis Center
08:47AM 34.7642 -91.5300 85° East 353 406 11,800 1,500 Climbing Memphis Center
08:48AM 34.7756 -91.4164 83° East 375 432 13,800 1,800 Climbing Memphis Center
08:49AM 34.8036 -91.2878 75° East 391 450 15,400 1,560 Climbing Memphis Center
08:51AM 34.8597 -91.0125 76° East 413 475 18,500 1,380 Climbing Memphis Center
08:52AM 34.8875 -90.8686 77° East 429 494 19,700 1,260 Climbing Memphis Center
08:53AM 34.9131 -90.7217 78° East 436 502 21,100 1,260 Climbing Memphis Center
08:54AM 34.9300 -90.5547 83° East 444 511 22,300 1,200 Climbing Memphis Center
08:55AM 34.9469 -90.3975 82° East 461 531 23,500 1,080 Climbing Memphis Center
08:56AM 34.9739 -90.2406 78° East 467 537 24,500 1,080 Climbing Memphis Center
08:57AM 35.0069 -90.0808 76° East 472 543 25,700 1,320 Climbing Memphis Center
08:58AM 35.0461 -89.9258 73° East 472 543 27,200 1,260 Climbing Memphis Center
08:59AM 35.0414 -89.7636 92° East 479 551 28,300 900 Climbing Memphis Center
09:00AM 35.0031 -89.6219 108° East 474 545 29,000 300 Climbing Memphis Center
09:01AM 34.9539 -89.4628 111° Southeast 485 558 29,000  Level Memphis Center
09:02AM 34.9111 -89.3086 109° East 485 558 29,000  Level Memphis Center
09:03AM 34.8761 -89.1369 104° East 479 551 29,000 -420 Level Memphis Center
09:04AM 34.8536 -88.9778 100° East 479 551 28,200 -900 Descending Memphis Center
09:05AM 34.8308 -88.8214 100° East 471 542 27,300 -600 Descending Memphis Center
09:06AM 34.8100 -88.6650 99° East 466 536 27,000 -180 Descending Memphis Center
09:07AM 34.7850 -88.5136 101° East 466 536 27,000  Level Memphis Center
09:08AM 34.7600 -88.3778 103° East 460 529 27,000  Level Memphis Center
09:09AM 34.7344 -88.2192 101° East 465 535 27,000  Level Memphis Center
09:10AM 34.7061 -88.0356 101° East 493 567 27,000  Level Memphis Center
09:11AM 34.6819 -87.8744 100° East 493 567 27,000  Level Memphis Center
09:12AM 34.6622 -87.7286 99° East 487 560 27,000  Level Memphis Center
09:13AM 34.6358 -87.5681 101° East 487 560 27,000  Level Memphis Center
09:14AM 34.5967 -87.2889 100° East 500 575 27,000  Level Atlanta Center
09:15AM 34.5736 -87.1267 100° East 489 563 27,000  Level Atlanta Center
09:16AM 34.5486 -86.9617 100° East 489 563 27,000 -60 Level Atlanta Center
09:17AM 34.5253 -86.7969 100° East 489 563 26,900 -720 Descending Atlanta Center
09:18AM 34.5036 -86.6375 99° East 484 557 25,600 -1,380 Descending Atlanta Center
09:19AM 34.4797 -86.4756 100° East 484 557 24,200 -840 Descending Atlanta Center
09:20AM 34.4600 -86.3161 98° East 482 555 24,000 -120 Descending Atlanta Center
09:21AM 34.4333 -86.1669 102° East 467 537 24,000  Level Atlanta Center
09:22AM 34.3981 -86.0225 106° East 449 517 24,000  Level Atlanta Center
09:23AM 34.3608 -85.8758 107° East 449 517 24,000 -840 Level Atlanta Center
09:24AM 34.3169 -85.7414 112° Southeast 446 513 22,400 -2,340 Descending Atlanta Center
09:25AM 34.2811 -85.6075 108° East 428 493 19,400 -2,940 Descending Atlanta Center
09:26AM 34.2472 -85.4811 108° East 413 475 16,600 -2,820 Descending Atlanta Center
09:27AM 34.2108 -85.3550 109° East 403 464 13,800 -1,800 Descending Atlanta Center
09:28AM 34.1892 -85.2267 102° East 398 458 13,000 -420 Descending Atlanta Center
09:29AM 34.1653 -85.1108 104° East 381 438 13,000  Level Atlanta Center
09:30AM 34.1117 -85.0475 136° Southeast 311 358 13,000 -360 Level Atlanta Center
09:31AM 34.0494 -84.9814 139° Southeast 296 341 12,300 -1,200 Descending Atlanta Center
09:32AM 33.9744 -84.9481 160° South 286 329 10,700 -1,500 Descending Atlanta Center
09:33AM 33.9017 -84.9247 165° South 275 316 9,300 -900 Descending Atlanta Center
09:34AM 33.8267 -84.9164 175° South 275 316 9,000 -900 Descending Atlanta Center
09:35AM 33.7494 -84.9133 178° South 275 316 7,500 -1,020 Descending Atlanta Center
09:36AM 33.6764 -84.9050 175° South 275 316 7,000 -300 Descending Atlanta Center
09:37AM 33.6333 -84.8500 133° Southeast 244 281 7,000 -540 Level Atlanta TRACON
09:38AM 33.6333 -84.7667 90° East 216 249 6,000 -1,020 Descending Atlanta TRACON
09:39AM 33.6333 -84.7000 90° East 193 222 5,000 -1,020 Descending Atlanta TRACON
09:40AM 33.6333 -84.6333 90° East 191 220 4,000 -1,020 Descending Atlanta TRACON
09:41AM 33.6333 -84.5833 90° East 181 208 3,100 -960 Descending Atlanta TRACON
09:42AM 33.6333 -84.5333 90° East 167 192 2,200 -840 Descending Atlanta TRACON
09:43AM 33.6333 -84.4833 90° East 136 157 1,500 -720 Descending Atlanta TRACON